Agate, Nebraska
Current Conditions -  °F | °C
As of 4:53 AM on Friday 31 Oct 2014 (Local Time) from KTOR Reporting Station
Clear Clear  
Wind Chill: 22°   Ceiling: Unl
Heat Index: 30°   Visibility: 10mi
Dew Point: 28°   Wind: 8mph
Humidity: 92%   Direction: 110°ESE
Pressure: 30.37"   Gusts: NA
Location:  42.42°N, 103.79°W
Report Text: KTOR 311053Z AUTO 11007KT 10SM CLR M01/M02 A3037 RMK AO2 SLP282 T10111022
Loading
Personal Weather Stations






























Interactive Weather Map
Tropical Storm Tracking
New forecast layout! Learn more

10-Day Weather Forecast

Advertisements
Track Severe Weather on mobile